Time;durP1;ratioP1;P1;durP2;ratioP2;P2;SDS_P1;SDS_P2;PMS_P1;PMS_P2;Temp;Humidity;BMP_temperature;BMP_pressure;BME280_temperature;BME280_humidity;BME280_pressure;Samples;Min_cycle;Max_cycle;Signal;HPM_P1;HPM_P2
2020/12/20 00:01:20;;;;;;;;;;;22.30;38.60;;;;;;1550487;74;734;-70
2020/12/20 00:03:22;;;;;;;;;;;22.30;38.60;;;;;;1557292;74;708;-68
2020/12/20 00:05:24;;;;;;;;;;;22.20;38.50;;;;;;1555620;74;708;-68
2020/12/20 00:07:26;;;;;;;;;;;22.20;38.50;;;;;;1567556;74;748;-68
2020/12/20 00:09:28;;;;;;;;;;;22.20;38.50;;;;;;1573819;74;1093;-67
2020/12/20 00:11:30;;;;;;;;;;;22.10;38.60;;;;;;1573219;74;768;-67
2020/12/20 00:13:32;;;;;;;;;;;22.20;38.60;;;;;;1570244;74;668;-68
2020/12/20 00:15:33;;;;;;;;;;;22.20;38.60;;;;;;1567887;74;722;-68
2020/12/20 00:17:35;;;;;;;;;;;22.20;38.70;;;;;;1574020;74;1947;-69
2020/12/20 00:19:37;;;;;;;;;;;22.20;38.70;;;;;;1569679;74;738;-69
2020/12/20 00:21:39;;;;;;;;;;;22.10;38.80;;;;;;1567299;74;744;-66
2020/12/20 00:23:41;;;;;;;;;;;22.20;38.80;;;;;;1570141;74;780;-67
2020/12/20 00:25:43;;;;;;;;;;;22.20;38.80;;;;;;1572270;74;756;-67
2020/12/20 00:27:45;;;;;;;;;;;22.20;38.70;;;;;;1571892;74;1140;-67
2020/12/20 00:29:47;;;;;;;;;;;22.20;38.70;;;;;;1565169;74;715;-67
2020/12/20 00:31:48;;;;;;;;;;;22.30;38.90;;;;;;1570091;74;824;-70
2020/12/20 00:33:50;;;;;;;;;;;22.20;38.70;;;;;;1566380;74;706;-71
2020/12/20 00:35:52;;;;;;;;;;;22.20;38.90;;;;;;1567292;74;691;-71
2020/12/20 00:37:54;;;;;;;;;;;22.20;39.20;;;;;;1572386;74;1949;-72
2020/12/20 00:39:56;;;;;;;;;;;22.20;39.30;;;;;;1572127;74;748;-71
2020/12/20 00:41:59;;;;;;;;;;;22.30;39.40;;;;;;1573081;74;676;-70
2020/12/20 00:44:01;;;;;;;;;;;22.30;39.40;;;;;;1574482;74;669;-70
2020/12/20 00:46:03;;;;;;;;;;;22.30;39.40;;;;;;1570718;74;702;-71
2020/12/20 00:48:04;;;;;;;;;;;22.30;39.40;;;;;;1571006;74;1199;-71
2020/12/20 00:50:06;;;;;;;;;;;22.30;39.40;;;;;;1573925;74;710;-73
2020/12/20 00:52:08;;;;;;;;;;;22.30;39.40;;;;;;1571304;74;741;-72
2020/12/20 00:54:10;;;;;;;;;;;22.30;39.40;;;;;;1570078;74;720;-73
2020/12/20 00:56:15;;;;;;;;;;;22.30;39.40;;;;;;1561179;74;698;-70
2020/12/20 00:58:17;;;;;;;;;;;22.30;39.60;;;;;;1569577;74;1930;-70
2020/12/20 01:00:18;;;;;;;;;;;22.30;39.50;;;;;;1566175;74;722;-71
2020/12/20 01:02:20;;;;;;;;;;;22.30;39.60;;;;;;1567489;74;716;-72
2020/12/20 01:04:22;;;;;;;;;;;22.30;39.50;;;;;;1569448;74;722;-72
2020/12/20 01:06:24;;;;;;;;;;;22.30;39.60;;;;;;1572857;74;734;-71
2020/12/20 01:08:27;;;;;;;;;;;22.30;39.70;;;;;;1568579;74;1142;-71
2020/12/20 01:10:29;;;;;;;;;;;22.30;39.70;;;;;;1573548;74;730;-72
2020/12/20 01:12:32;;;;;;;;;;;22.40;39.70;;;;;;1573642;74;650;-70
2020/12/20 01:14:33;;;;;;;;;;;22.40;39.80;;;;;;1571602;74;760;-70
2020/12/20 01:16:35;;;;;;;;;;;22.40;39.70;;;;;;1569369;74;716;-71
2020/12/20 01:18:37;;;;;;;;;;;22.30;39.90;;;;;;1567602;74;1939;-71
2020/12/20 01:20:39;;;;;;;;;;;22.30;39.70;;;;;;1570478;74;706;-69
2020/12/20 01:22:41;;;;;;;;;;;22.30;39.90;;;;;;1568454;74;718;-72
2020/12/20 01:24:43;;;;;;;;;;;22.40;40.00;;;;;;1569146;74;716;-73
2020/12/20 01:26:45;;;;;;;;;;;22.40;40.00;;;;;;1575776;74;651;-70
2020/12/20 01:28:47;;;;;;;;;;;22.30;40.20;;;;;;1536120;75;1140;-71
2020/12/20 01:30:48;;;;;;;;;;;22.30;40.20;;;;;;1561532;74;740;-70
2020/12/20 01:32:50;;;;;;;;;;;22.30;40.20;;;;;;1574979;74;720;-70
2020/12/20 01:34:52;;;;;;;;;;;22.20;40.20;;;;;;1568684;74;730;-73
2020/12/20 01:36:56;;;;;;;;;;;22.30;40.30;;;;;;1568847;74;756;-70
2020/12/20 01:38:57;;;;;;;;;;;22.30;40.30;;;;;;1570270;74;1940;-72
2020/12/20 01:40:59;;;;;;;;;;;22.30;40.30;;;;;;1574874;74;757;-70
2020/12/20 01:43:01;;;;;;;;;;;22.30;40.20;;;;;;1573147;74;704;-72
2020/12/20 01:45:03;;;;;;;;;;;22.30;40.20;;;;;;1573823;74;761;-71
2020/12/20 01:47:05;;;;;;;;;;;22.30;40.40;;;;;;1576561;74;717;-68
2020/12/20 01:49:07;;;;;;;;;;;22.30;40.30;;;;;;1577792;74;1104;-69
2020/12/20 01:51:09;;;;;;;;;;;22.30;40.30;;;;;;1564385;74;709;-70
2020/12/20 01:53:12;;;;;;;;;;;22.30;40.40;;;;;;1572449;74;722;-71
2020/12/20 01:55:14;;;;;;;;;;;22.30;40.50;;;;;;1576413;74;799;-72
2020/12/20 01:57:15;;;;;;;;;;;22.30;40.50;;;;;;1569672;74;752;-71
2020/12/20 01:59:17;;;;;;;;;;;22.30;40.50;;;;;;1571389;74;1933;-70
2020/12/20 02:01:19;;;;;;;;;;;22.30;40.50;;;;;;1568525;74;703;-70
2020/12/20 02:03:21;;;;;;;;;;;22.30;40.50;;;;;;1581664;74;787;-71
2020/12/20 02:05:23;;;;;;;;;;;22.30;40.50;;;;;;1578877;74;714;-69
2020/12/20 02:07:25;;;;;;;;;;;22.40;40.50;;;;;;1565186;74;712;-70
2020/12/20 02:09:27;;;;;;;;;;;22.30;40.40;;;;;;1573893;74;1116;-70
2020/12/20 02:11:29;;;;;;;;;;;22.30;40.40;;;;;;1571933;74;699;-71
2020/12/20 02:13:31;;;;;;;;;;;22.30;40.30;;;;;;1575234;74;929;-72
2020/12/20 02:15:32;;;;;;;;;;;22.40;40.40;;;;;;1574458;74;718;-70
2020/12/20 02:17:34;;;;;;;;;;;22.30;40.40;;;;;;1588473;74;1153;-72
2020/12/20 02:19:36;;;;;;;;;;;22.40;40.40;;;;;;1577240;74;1939;-72
2020/12/20 02:21:38;;;;;;;;;;;22.40;40.30;;;;;;1556699;74;790;-70
2020/12/20 02:23:41;;;;;;;;;;;22.40;40.30;;;;;;1579085;74;713;-71
2020/12/20 02:25:42;;;;;;;;;;;22.40;40.50;;;;;;1574969;74;742;-72
2020/12/20 02:27:44;;;;;;;;;;;22.40;40.50;;;;;;1579525;74;1176;-72
2020/12/20 02:29:46;;;;;;;;;;;22.40;40.50;;;;;;1572748;74;744;-71
2020/12/20 02:31:48;;;;;;;;;;;22.30;40.50;;;;;;1564002;74;736;-71
2020/12/20 02:33:50;;;;;;;;;;;22.40;40.40;;;;;;1571033;74;711;-70
2020/12/20 02:35:52;;;;;;;;;;;22.40;40.60;;;;;;1575303;74;769;-70
2020/12/20 02:37:54;;;;;;;;;;;22.30;40.80;;;;;;1570457;74;1939;-70
2020/12/20 02:39:55;;;;;;;;;;;22.30;40.70;;;;;;1576644;74;996;-72
2020/12/20 02:41:57;;;;;;;;;;;22.40;40.60;;;;;;1573457;74;708;-69
2020/12/20 02:43:59;;;;;;;;;;;22.30;40.60;;;;;;1577960;74;678;-69
2020/12/20 02:46:01;;;;;;;;;;;22.40;40.50;;;;;;1574323;74;808;-71
2020/12/20 02:48:03;;;;;;;;;;;22.40;40.70;;;;;;1573129;74;1213;-73
2020/12/20 02:50:05;;;;;;;;;;;22.40;40.70;;;;;;1579792;74;782;-72
2020/12/20 02:52:07;;;;;;;;;;;22.40;40.80;;;;;;1571012;74;718;-70
2020/12/20 02:54:08;;;;;;;;;;;22.40;40.80;;;;;;1579227;74;716;-69
2020/12/20 02:56:10;;;;;;;;;;;22.40;40.80;;;;;;1573509;74;707;-70
2020/12/20 02:58:12;;;;;;;;;;;22.40;40.70;;;;;;1582723;74;1954;-70
2020/12/20 03:00:14;;;;;;;;;;;22.40;40.70;;;;;;1574453;74;702;-72
2020/12/20 03:02:16;;;;;;;;;;;22.40;40.70;;;;;;1581000;74;765;-71
2020/12/20 03:04:18;;;;;;;;;;;22.40;40.60;;;;;;1587635;74;708;-71
2020/12/20 03:06:20;;;;;;;;;;;22.40;40.60;;;;;;1576066;74;668;-72
2020/12/20 03:08:22;;;;;;;;;;;22.40;40.60;;;;;;1589946;74;1149;-71
2020/12/20 03:10:24;;;;;;;;;;;22.40;40.50;;;;;;1587628;74;690;-73
2020/12/20 03:12:26;;;;;;;;;;;22.40;40.50;;;;;;1581052;74;714;-71
2020/12/20 03:14:28;;;;;;;;;;;22.50;40.60;;;;;;1592976;74;722;-72
2020/12/20 03:16:30;;;;;;;;;;;22.40;40.70;;;;;;1590116;74;660;-73
2020/12/20 03:18:32;;;;;;;;;;;22.40;40.80;;;;;;1586567;74;1901;-70
2020/12/20 03:20:34;;;;;;;;;;;22.40;40.70;;;;;;1566921;74;699;-70
2020/12/20 03:22:36;;;;;;;;;;;22.40;40.70;;;;;;1574928;74;663;-70
2020/12/20 03:24:38;;;;;;;;;;;22.50;40.80;;;;;;1580327;74;729;-71
2020/12/20 03:26:40;;;;;;;;;;;22.40;40.60;;;;;;1566248;74;730;-71
2020/12/20 03:28:42;;;;;;;;;;;22.40;40.60;;;;;;1583087;74;1123;-71
2020/12/20 03:30:44;;;;;;;;;;;22.40;40.70;;;;;;1562070;74;773;-72
2020/12/20 03:32:46;;;;;;;;;;;22.40;40.70;;;;;;1595857;74;690;-71
2020/12/20 03:34:47;;;;;;;;;;;22.50;40.70;;;;;;1571322;74;808;-71
2020/12/20 03:36:49;;;;;;;;;;;22.40;40.70;;;;;;1574555;74;719;-71
2020/12/20 03:38:51;;;;;;;;;;;22.40;40.70;;;;;;1580065;74;1944;-71
2020/12/20 03:40:53;;;;;;;;;;;22.50;40.90;;;;;;1574725;74;648;-71
2020/12/20 03:42:55;;;;;;;;;;;22.50;40.90;;;;;;1585715;74;692;-71
2020/12/20 03:44:57;;;;;;;;;;;22.40;40.70;;;;;;1587081;74;740;-71
2020/12/20 03:46:59;;;;;;;;;;;22.40;40.80;;;;;;1581040;74;572;-70
2020/12/20 03:49:00;;;;;;;;;;;22.50;41.00;;;;;;1576762;74;1192;-72
2020/12/20 03:51:02;;;;;;;;;;;22.50;41.00;;;;;;1575302;74;777;-71
2020/12/20 03:53:04;;;;;;;;;;;22.40;41.00;;;;;;1581663;74;699;-72
2020/12/20 03:55:06;;;;;;;;;;;22.40;41.10;;;;;;1566448;74;836;-70
2020/12/20 03:57:08;;;;;;;;;;;22.40;41.30;;;;;;1569039;74;714;-71
2020/12/20 03:59:10;;;;;;;;;;;22.40;41.30;;;;;;1578542;74;1923;-71
2020/12/20 04:01:12;;;;;;;;;;;22.40;41.30;;;;;;1569747;74;703;-70
2020/12/20 04:03:14;;;;;;;;;;;22.30;41.40;;;;;;1589056;74;798;-71
2020/12/20 04:05:16;;;;;;;;;;;22.40;41.50;;;;;;1569261;74;729;-71
2020/12/20 04:07:18;;;;;;;;;;;22.30;41.70;;;;;;1578815;74;775;-71
2020/12/20 04:09:20;;;;;;;;;;;22.30;41.70;;;;;;1597534;74;1176;-72
2020/12/20 04:11:21;;;;;;;;;;;22.30;41.90;;;;;;1575539;74;724;-72
2020/12/20 04:13:23;;;;;;;;;;;22.30;42.10;;;;;;1586865;74;674;-73
2020/12/20 04:15:25;;;;;;;;;;;22.20;42.00;;;;;;1577305;74;726;-71
2020/12/20 04:17:27;;;;;;;;;;;22.20;42.00;;;;;;1583017;74;707;-72
2020/12/20 04:19:29;;;;;;;;;;;22.20;42.10;;;;;;1590988;74;1962;-73
2020/12/20 04:21:31;;;;;;;;;;;22.30;42.20;;;;;;1579249;74;755;-70
2020/12/20 04:23:33;;;;;;;;;;;22.30;42.20;;;;;;1578437;74;718;-70
2020/12/20 04:25:35;;;;;;;;;;;22.30;42.30;;;;;;1589236;74;713;-72
2020/12/20 04:27:36;;;;;;;;;;;22.30;42.10;;;;;;1560669;74;1142;-72
2020/12/20 04:29:38;;;;;;;;;;;22.30;42.10;;;;;;1573667;74;734;-71
2020/12/20 04:31:40;;;;;;;;;;;22.30;42.10;;;;;;1567844;74;722;-71
2020/12/20 04:33:42;;;;;;;;;;;22.30;42.20;;;;;;1570448;74;689;-71
2020/12/20 04:35:44;;;;;;;;;;;22.30;42.20;;;;;;1584865;74;704;-72
2020/12/20 04:37:46;;;;;;;;;;;22.30;42.30;;;;;;1579317;74;1176;-73
2020/12/20 04:39:48;;;;;;;;;;;22.30;42.30;;;;;;1582582;74;1926;-73
2020/12/20 04:41:50;;;;;;;;;;;22.30;42.50;;;;;;1579575;74;748;-73
2020/12/20 04:43:52;;;;;;;;;;;22.30;42.40;;;;;;1577182;74;730;-73
2020/12/20 04:45:54;;;;;;;;;;;22.40;42.30;;;;;;1572059;74;850;-72
2020/12/20 04:47:56;;;;;;;;;;;22.30;42.40;;;;;;1592271;74;1184;-72
2020/12/20 04:49:58;;;;;;;;;;;22.30;42.30;;;;;;1567795;74;799;-70
2020/12/20 04:52:00;;;;;;;;;;;22.40;42.30;;;;;;1578879;74;755;-71
2020/12/20 04:54:02;;;;;;;;;;;22.40;42.30;;;;;;1575705;74;678;-71
2020/12/20 04:56:05;;;;;;;;;;;22.40;42.20;;;;;;1576328;74;709;-71
2020/12/20 04:58:07;;;;;;;;;;;22.50;42.30;;;;;;1581389;74;1166;-70
2020/12/20 05:00:09;;;;;;;;;;;22.50;42.30;;;;;;1571978;74;1933;-71
2020/12/20 05:02:10;;;;;;;;;;;22.40;42.10;;;;;;1585807;74;678;-71
2020/12/20 05:04:12;;;;;;;;;;;22.40;42.10;;;;;;1570511;74;723;-71
2020/12/20 05:06:14;;;;;;;;;;;22.50;42.10;;;;;;1577105;74;725;-72
2020/12/20 05:08:16;;;;;;;;;;;22.40;42.00;;;;;;1569489;74;1106;-71
2020/12/20 05:10:18;;;;;;;;;;;22.40;42.00;;;;;;1581821;74;710;-71
2020/12/20 05:12:24;;;;;;;;;;;22.50;42.20;;;;;;1590003;74;737;-72
2020/12/20 05:14:33;;;;;;;;;;;22.40;42.00;;;;;;1570894;74;631;-70
2020/12/20 05:16:35;;;;;;;;;;;22.40;42.10;;;;;;1584179;74;714;-70
2020/12/20 05:18:37;;;;;;;;;;;22.40;42.10;;;;;;1584714;74;1481;-70
2020/12/20 05:20:43;;;;;;;;;;;22.50;42.20;;;;;;1537501;75;1932;-71
2020/12/20 05:22:45;;;;;;;;;;;22.40;42.10;;;;;;1566420;74;722;-72
2020/12/20 05:24:47;;;;;;;;;;;22.50;42.30;;;;;;1583405;74;668;-72
2020/12/20 05:26:49;;;;;;;;;;;22.50;42.30;;;;;;1577846;74;732;-71
2020/12/20 05:28:50;;;;;;;;;;;22.50;42.30;;;;;;1563892;74;1151;-72
2020/12/20 05:30:52;;;;;;;;;;;22.50;42.40;;;;;;1586422;74;735;-71
2020/12/20 05:32:54;;;;;;;;;;;22.40;42.20;;;;;;1590683;74;783;-72
2020/12/20 05:35:01;;;;;;;;;;;22.50;42.40;;;;;;1589713;74;735;-70
2020/12/20 05:37:09;;;;;;;;;;;22.50;42.50;;;;;;1569045;74;1506;-72
2020/12/20 05:39:17;;;;;;;;;;;22.40;42.30;;;;;;1576438;74;1952;-73
2020/12/20 05:41:29;;;;;;;;;;;22.50;42.40;;;;;;1560516;74;708;-71
2020/12/20 05:43:31;;;;;;;;;;;22.50;42.30;;;;;;1575424;74;664;-72
2020/12/20 05:45:34;;;;;;;;;;;22.50;42.30;;;;;;1572035;74;715;-72
2020/12/20 05:47:36;;;;;;;;;;;22.50;42.60;;;;;;1563989;74;1147;-71
2020/12/20 05:49:38;;;;;;;;;;;22.50;42.60;;;;;;1572479;74;728;-71
2020/12/20 05:51:40;;;;;;;;;;;22.50;42.60;;;;;;1575055;74;784;-71
2020/12/20 05:53:42;;;;;;;;;;;22.50;42.60;;;;;;1581036;74;641;-71
2020/12/20 05:55:43;;;;;;;;;;;22.50;42.60;;;;;;1568481;74;671;-71
2020/12/20 05:57:45;;;;;;;;;;;22.50;42.60;;;;;;1570976;74;1321;-72
2020/12/20 05:59:48;;;;;;;;;;;22.60;42.50;;;;;;1574890;74;1944;-71
2020/12/20 06:01:50;;;;;;;;;;;22.60;42.50;;;;;;1564932;74;708;-70
2020/12/20 06:03:52;;;;;;;;;;;22.50;42.40;;;;;;1573239;74;737;-67
2020/12/20 06:05:53;;;;;;;;;;;22.50;42.60;;;;;;1568418;74;654;-70
2020/12/20 06:07:55;;;;;;;;;;;22.50;42.60;;;;;;1571159;74;1238;-71
2020/12/20 06:10:01;;;;;;;;;;;22.40;42.50;;;;;;1572212;74;751;-71
2020/12/20 06:12:02;;;;;;;;;;;22.50;42.60;;;;;;1564829;74;717;-70
2020/12/20 06:14:04;;;;;;;;;;;22.50;42.70;;;;;;1572765;74;768;-71
2020/12/20 06:16:08;;;;;;;;;;;22.50;42.60;;;;;;1564638;74;675;-69
2020/12/20 06:18:10;;;;;;;;;;;22.50;42.80;;;;;;1568413;74;1157;-71
2020/12/20 06:20:16;;;;;;;;;;;22.50;42.80;;;;;;1563944;74;1960;-71
2020/12/20 06:22:18;;;;;;;;;;;22.50;42.80;;;;;;1520149;75;1099;-71
2020/12/20 06:24:20;;;;;;;;;;;22.50;42.70;;;;;;1575711;74;686;-72
2020/12/20 06:26:22;;;;;;;;;;;22.50;42.70;;;;;;1563602;74;751;-70
2020/12/20 06:28:24;;;;;;;;;;;22.50;42.60;;;;;;1567058;74;1172;-71
2020/12/20 06:30:26;;;;;;;;;;;22.60;42.60;;;;;;1561389;74;761;-72
2020/12/20 06:32:35;;;;;;;;;;;22.60;42.60;;;;;;1567524;74;793;-72
2020/12/20 06:34:39;;;;;;;;;;;22.60;42.60;;;;;;1567594;74;655;-70
2020/12/20 06:36:41;;;;;;;;;;;22.60;42.60;;;;;;1561796;74;706;-72
2020/12/20 06:38:44;;;;;;;;;;;22.60;42.60;;;;;;1568672;74;1155;-72
2020/12/20 06:40:46;;;;;;;;;;;22.60;42.60;;;;;;1565413;74;1939;-71
2020/12/20 06:42:49;;;;;;;;;;;22.60;42.50;;;;;;1562938;74;751;-70
2020/12/20 06:44:52;;;;;;;;;;;22.70;42.70;;;;;;1580783;74;701;-71
2020/12/20 06:46:54;;;;;;;;;;;22.60;42.60;;;;;;1563073;74;1094;-70
2020/12/20 06:48:56;;;;;;;;;;;22.60;42.60;;;;;;1575445;74;1132;-71
2020/12/20 06:50:58;;;;;;;;;;;22.60;42.50;;;;;;1565015;74;705;-71
2020/12/20 06:53:00;;;;;;;;;;;22.70;42.80;;;;;;1572875;74;749;-71
2020/12/20 06:55:02;;;;;;;;;;;22.60;42.70;;;;;;1568616;74;717;-71
2020/12/20 06:57:10;;;;;;;;;;;22.60;42.60;;;;;;1565462;74;708;-68
2020/12/20 06:59:11;;;;;;;;;;;22.60;42.70;;;;;;1565977;74;1205;-70
2020/12/20 07:01:31;;;;;;;;;;;22.50;42.70;;;;;;1533369;75;1939;-70
2020/12/20 07:03:38;;;;;;;;;;;22.60;42.70;;;;;;1559771;74;708;-71
2020/12/20 07:05:44;;;;;;;;;;;22.60;42.70;;;;;;1565574;74;692;-71
2020/12/20 07:07:47;;;;;;;;;;;22.60;42.80;;;;;;1556816;74;1152;-72
2020/12/20 07:09:49;;;;;;;;;;;22.60;43.00;;;;;;1552052;75;1392;-72
2020/12/20 07:11:51;;;;;;;;;;;22.50;42.90;;;;;;1561821;74;677;-72
2020/12/20 07:13:54;;;;;;;;;;;22.50;43.10;;;;;;1561806;74;637;-72
2020/12/20 07:15:58;;;;;;;;;;;22.60;43.00;;;;;;1559715;75;742;-71
2020/12/20 07:17:59;;;;;;;;;;;22.60;42.90;;;;;;1522901;76;1113;-71
2020/12/20 07:20:12;;;;;;;;;;;22.50;42.90;;;;;;1562696;75;1938;-72
2020/12/20 07:22:14;;;;;;;;;;;22.60;43.00;;;;;;1564652;75;813;-71
2020/12/20 07:24:19;;;;;;;;;;;22.60;42.90;;;;;;1521293;75;659;-72
2020/12/20 07:26:21;;;;;;;;;;;22.70;43.00;;;;;;1562201;75;774;-70
2020/12/20 07:28:23;;;;;;;;;;;22.60;42.80;;;;;;1555106;75;1126;-70
2020/12/20 07:30:25;;;;;;;;;;;22.60;42.80;;;;;;1544270;75;757;-72
2020/12/20 07:32:27;;;;;;;;;;;22.60;42.80;;;;;;1566437;75;726;-70
2020/12/20 07:34:28;;;;;;;;;;;22.60;42.80;;;;;;1557717;75;724;-71
2020/12/20 07:36:30;;;;;;;;;;;22.60;42.90;;;;;;1555682;75;699;-71
2020/12/20 07:38:32;;;;;;;;;;;22.60;43.00;;;;;;1537851;75;1160;-71
2020/12/20 07:40:35;;;;;;;;;;;22.70;43.00;;;;;;1572396;74;1940;-70
2020/12/20 07:42:37;;;;;;;;;;;22.70;43.00;;;;;;1574236;74;768;-71
2020/12/20 07:44:38;;;;;;;;;;;22.60;42.80;;;;;;1572784;74;726;-71
2020/12/20 07:46:40;;;;;;;;;;;22.70;42.80;;;;;;1573941;74;706;-71
2020/12/20 07:48:42;;;;;;;;;;;22.80;42.90;;;;;;1568226;74;1138;-71
2020/12/20 07:50:44;;;;;;;;;;;22.80;42.70;;;;;;1566446;74;733;-70
2020/12/20 07:52:48;;;;;;;;;;;22.70;42.70;;;;;;1567638;74;847;-71
2020/12/20 07:54:51;;;;;;;;;;;22.70;42.70;;;;;;1571730;74;725;-71
2020/12/20 07:56:53;;;;;;;;;;;22.70;42.60;;;;;;1573629;74;1047;-71
2020/12/20 07:58:56;;;;;;;;;;;22.80;42.60;;;;;;1559543;74;1189;-71
2020/12/20 08:01:05;;;;;;;;;;;22.80;42.50;;;;;;1562757;74;1930;-69
2020/12/20 08:03:07;;;;;;;;;;;22.80;42.50;;;;;;1566143;74;1154;-71
2020/12/20 08:05:10;;;;;;;;;;;22.80;42.50;;;;;;1564258;74;709;-69
2020/12/20 08:07:13;;;;;;;;;;;22.80;42.50;;;;;;1558877;74;684;-71
2020/12/20 08:09:16;;;;;;;;;;;22.80;42.50;;;;;;1573500;74;1130;-70
2020/12/20 08:11:26;;;;;;;;;;;22.70;42.70;;;;;;1565085;74;712;-70
2020/12/20 08:13:25;;;;;;;;;;;22.80;42.90;;;;;;1563718;74;1548;-71
2020/12/20 08:15:26;;;;;;;;;;;22.60;42.80;;;;;;1573833;74;794;-70
2020/12/20 08:17:28;;;;;;;;;;;22.60;42.80;;;;;;1574272;74;724;-71
2020/12/20 08:19:31;;;;;;;;;;;22.60;42.90;;;;;;1564949;74;1081;-72
2020/12/20 08:21:44;;;;;;;;;;;22.60;42.90;;;;;;1561950;74;1895;-71
2020/12/20 08:23:46;;;;;;;;;;;22.60;42.90;;;;;;1571780;74;728;-69
2020/12/20 08:25:47;;;;;;;;;;;22.70;43.10;;;;;;1561088;74;708;-69
2020/12/20 08:27:49;;;;;;;;;;;22.60;42.90;;;;;;1568152;74;1059;-69
2020/12/20 08:29:55;;;;;;;;;;;22.70;42.90;;;;;;1566968;74;663;-71
2020/12/20 08:31:56;;;;;;;;;;;22.70;42.90;;;;;;1571434;74;722;-71
2020/12/20 08:33:59;;;;;;;;;;;22.70;42.60;;;;;;1540344;76;1135;-72
2020/12/20 08:36:02;;;;;;;;;;;22.70;42.50;;;;;;1572511;74;784;-71
2020/12/20 08:38:04;;;;;;;;;;;22.70;42.20;;;;;;1563637;74;1175;-72
2020/12/20 08:40:15;;;;;;;;;;;22.80;41.90;;;;;;1560799;74;1938;-69
2020/12/20 08:42:18;;;;;;;;;;;22.70;41.70;;;;;;1571494;74;716;-71
2020/12/20 08:44:20;;;;;;;;;;;22.70;41.80;;;;;;1568821;74;767;-73
2020/12/20 08:46:31;;;;;;;;;;;22.80;41.90;;;;;;1573168;74;715;-72
2020/12/20 08:48:33;;;;;;;;;;;23.00;41.60;;;;;;1572030;74;1149;-73
2020/12/20 08:50:35;;;;;;;;;;;23.10;42.30;;;;;;1574610;74;775;-74
2020/12/20 08:52:37;;;;;;;;;;;23.10;42.30;;;;;;1571048;74;805;-74
2020/12/20 08:54:39;;;;;;;;;;;23.20;42.10;;;;;;1574450;74;724;-74
2020/12/20 08:56:53;;;;;;;;;;;23.30;42.10;;;;;;1572221;74;703;-74
2020/12/20 08:59:00;;;;;;;;;;;23.40;41.80;;;;;;1569379;74;1242;-72
2020/12/20 09:00:58;;;;;;;;;;;23.30;41.70;;;;;;1573258;74;1921;-70
2020/12/20 09:03:00;;;;;;;;;;;23.50;41.70;;;;;;1569255;74;637;-71
2020/12/20 09:05:07;;;;;;;;;;;23.40;41.40;;;;;;1571371;74;693;-73
2020/12/20 09:07:11;;;;;;;;;;;23.50;41.50;;;;;;1567564;74;1495;-72
2020/12/20 09:09:14;;;;;;;;;;;23.60;41.30;;;;;;1565182;74;1154;-69
2020/12/20 09:11:24;;;;;;;;;;;23.50;41.10;;;;;;1568787;74;990;-73
2020/12/20 09:13:26;;;;;;;;;;;23.50;40.80;;;;;;1567899;74;720;-70
2020/12/20 09:15:32;;;;;;;;;;;23.60;40.60;;;;;;1569686;74;752;-76
2020/12/20 09:17:38;;;;;;;;;;;23.60;40.60;;;;;;1553247;74;771;-67
2020/12/20 09:19:40;;;;;;;;;;;23.60;40.40;;;;;;1560378;74;796;-70
2020/12/20 09:21:42;;;;;;;;;;;23.60;40.30;;;;;;1574107;74;1935;-74
2020/12/20 09:23:44;;;;;;;;;;;23.60;40.10;;;;;;1570975;74;759;-72
2020/12/20 09:25:46;;;;;;;;;;;23.60;40.10;;;;;;1567060;74;622;-69
2020/12/20 09:27:51;;;;;;;;;;;23.60;40.20;;;;;;1572259;74;1138;-71
2020/12/20 09:29:53;;;;;;;;;;;23.60;40.00;;;;;;1573027;74;628;-75
2020/12/20 09:31:56;;;;;;;;;;;23.70;40.10;;;;;;1570258;74;730;-71
2020/12/20 09:34:00;;;;;;;;;;;23.70;40.00;;;;;;1548821;75;694;-72
2020/12/20 09:36:08;;;;;;;;;;;23.70;39.80;;;;;;1538312;75;1593;-70
2020/12/20 09:38:10;;;;;;;;;;;23.80;39.90;;;;;;1563026;75;1155;-69
2020/12/20 09:40:11;;;;;;;;;;;23.70;39.70;;;;;;1558709;75;706;-71
2020/12/20 09:42:13;;;;;;;;;;;23.80;39.40;;;;;;1568502;75;1942;-70
2020/12/20 09:44:15;;;;;;;;;;;23.80;39.40;;;;;;1567869;75;805;-72
2020/12/20 09:46:20;;;;;;;;;;;23.80;39.30;;;;;;1564612;74;785;-69
2020/12/20 09:48:22;;;;;;;;;;;23.80;39.20;;;;;;1564763;75;1145;-70
2020/12/20 09:50:24;;;;;;;;;;;23.80;39.10;;;;;;1567769;75;769;-70
2020/12/20 09:52:26;;;;;;;;;;;23.80;39.20;;;;;;1564689;75;727;-68
2020/12/20 09:54:28;;;;;;;;;;;23.70;39.10;;;;;;1564764;75;780;-70
2020/12/20 09:56:30;;;;;;;;;;;23.80;38.90;;;;;;1567180;75;725;-69
2020/12/20 09:58:32;;;;;;;;;;;23.80;38.70;;;;;;1567915;75;1182;-70
2020/12/20 10:00:34;;;;;;;;;;;23.80;38.50;;;;;;1553949;75;1916;-70
2020/12/20 10:02:35;;;;;;;;;;;23.80;38.40;;;;;;1568241;74;702;-70
2020/12/20 10:04:38;;;;;;;;;;;23.80;38.30;;;;;;1563433;75;609;-71
2020/12/20 10:06:39;;;;;;;;;;;23.80;38.20;;;;;;1565011;75;780;-68
2020/12/20 10:08:41;;;;;;;;;;;23.80;38.10;;;;;;1566059;74;1086;-70
2020/12/20 10:10:43;;;;;;;;;;;23.70;38.00;;;;;;1565879;75;736;-69
2020/12/20 10:12:45;;;;;;;;;;;23.80;38.00;;;;;;1558054;75;740;-70
2020/12/20 10:14:47;;;;;;;;;;;23.70;37.90;;;;;;1565309;75;726;-68
2020/12/20 10:16:50;;;;;;;;;;;23.80;37.80;;;;;;1565998;75;714;-68
2020/12/20 10:18:52;;;;;;;;;;;23.80;37.80;;;;;;1559038;75;1764;-69
2020/12/20 10:20:54;;;;;;;;;;;23.70;37.80;;;;;;1553453;75;1934;-70
2020/12/20 10:22:56;;;;;;;;;;;23.80;37.70;;;;;;1561970;75;770;-69
2020/12/20 10:24:58;;;;;;;;;;;23.80;37.70;;;;;;1555641;75;686;-69
2020/12/20 10:27:00;;;;;;;;;;;23.80;37.60;;;;;;1569223;74;669;-69
2020/12/20 10:29:02;;;;;;;;;;;23.80;37.60;;;;;;1558745;75;1147;-69
2020/12/20 10:31:04;;;;;;;;;;;23.70;37.40;;;;;;1565154;75;624;-70
2020/12/20 10:33:05;;;;;;;;;;;23.80;37.40;;;;;;1551671;75;725;-69
2020/12/20 10:35:07;;;;;;;;;;;23.80;37.30;;;;;;1565107;75;756;-69
2020/12/20 10:37:09;;;;;;;;;;;23.80;37.30;;;;;;1564354;74;804;-68
2020/12/20 10:39:11;;;;;;;;;;;23.80;37.30;;;;;;1555882;75;1153;-69
2020/12/20 10:41:13;;;;;;;;;;;23.80;37.30;;;;;;1556230;75;1951;-69
2020/12/20 10:43:15;;;;;;;;;;;23.70;37.20;;;;;;1562322;74;738;-69
2020/12/20 10:45:17;;;;;;;;;;;23.80;37.20;;;;;;1553206;74;779;-69
2020/12/20 10:47:19;;;;;;;;;;;23.80;37.10;;;;;;1565490;74;648;-67
2020/12/20 10:49:20;;;;;;;;;;;23.70;37.10;;;;;;1549312;75;1135;-69
2020/12/20 10:51:22;;;;;;;;;;;23.70;37.00;;;;;;1562015;75;682;-71
2020/12/20 10:53:24;;;;;;;;;;;23.80;37.00;;;;;;1548543;75;768;-70
2020/12/20 10:55:26;;;;;;;;;;;23.70;37.00;;;;;;1553996;74;778;-71
2020/12/20 10:57:28;;;;;;;;;;;23.80;37.00;;;;;;1565060;74;750;-68
2020/12/20 10:59:30;;;;;;;;;;;23.80;36.90;;;;;;1561112;74;1114;-70
2020/12/20 11:01:34;;;;;;;;;;;23.80;36.80;;;;;;1566410;74;1928;-72
2020/12/20 11:03:36;;;;;;;;;;;23.80;36.90;;;;;;1565934;75;2008;-70
2020/12/20 11:05:38;;;;;;;;;;;23.80;36.80;;;;;;1563421;75;726;-68
2020/12/20 11:07:39;;;;;;;;;;;23.70;36.70;;;;;;1563490;75;1151;-69
2020/12/20 11:09:41;;;;;;;;;;;23.70;36.50;;;;;;1546552;75;782;-70
2020/12/20 11:11:43;;;;;;;;;;;23.60;36.20;;;;;;1558752;75;720;-68
2020/12/20 11:13:45;;;;;;;;;;;23.50;36.30;;;;;;1562762;75;651;-70
2020/12/20 11:15:47;;;;;;;;;;;23.40;36.10;;;;;;1561354;75;815;-68
2020/12/20 11:17:49;;;;;;;;;;;23.40;36.10;;;;;;1557816;75;1150;-70
2020/12/20 11:19:54;;;;;;;;;;;23.40;36.00;;;;;;1563993;75;736;-71
2020/12/20 11:21:55;;;;;;;;;;;23.30;36.00;;;;;;1548112;75;1912;-69
2020/12/20 11:23:56;;;;;;;;;;;23.30;36.00;;;;;;1553739;75;1098;-70
2020/12/20 11:25:59;;;;;;;;;;;23.30;36.00;;;;;;1555191;75;662;-69
2020/12/20 11:28:01;;;;;;;;;;;23.20;36.00;;;;;;1562380;75;1138;-70
2020/12/20 11:30:04;;;;;;;;;;;23.20;36.10;;;;;;1561016;75;811;-71
2020/12/20 11:32:06;;;;;;;;;;;23.20;36.30;;;;;;1560581;75;864;-70
2020/12/20 11:34:09;;;;;;;;;;;23.10;36.30;;;;;;1562977;75;673;-70
2020/12/20 11:36:12;;;;;;;;;;;23.10;36.40;;;;;;1563849;75;774;-69
2020/12/20 11:38:14;;;;;;;;;;;23.10;36.50;;;;;;1563811;75;1201;-71
2020/12/20 11:40:16;;;;;;;;;;;23.00;36.40;;;;;;1561216;75;708;-71
2020/12/20 11:42:18;;;;;;;;;;;23.00;36.60;;;;;;1554554;75;1912;-70
2020/12/20 11:44:21;;;;;;;;;;;23.00;36.70;;;;;;1561011;75;669;-70
2020/12/20 11:46:23;;;;;;;;;;;22.90;36.80;;;;;;1561209;74;770;-68
2020/12/20 11:48:25;;;;;;;;;;;22.90;36.80;;;;;;1562548;74;1153;-69
2020/12/20 11:50:27;;;;;;;;;;;22.90;36.90;;;;;;1559264;75;762;-70
2020/12/20 11:52:30;;;;;;;;;;;22.90;37.00;;;;;;1564289;75;728;-68
2020/12/20 11:54:32;;;;;;;;;;;22.90;37.00;;;;;;1563686;75;1167;-70
2020/12/20 11:56:34;;;;;;;;;;;22.90;37.10;;;;;;1561684;75;687;-71
2020/12/20 11:58:38;;;;;;;;;;;22.90;37.10;;;;;;1566587;75;1264;-71
2020/12/20 12:00:42;;;;;;;;;;;22.80;37.10;;;;;;1557899;74;844;-70
2020/12/20 12:02:44;;;;;;;;;;;22.80;37.00;;;;;;1562504;74;1952;-68
2020/12/20 12:04:46;;;;;;;;;;;22.80;37.10;;;;;;1555691;75;750;-70
2020/12/20 12:06:48;;;;;;;;;;;22.80;37.10;;;;;;1552467;75;732;-71
2020/12/20 12:08:50;;;;;;;;;;;22.80;37.10;;;;;;1557788;74;1172;-70
2020/12/20 12:10:52;;;;;;;;;;;22.80;36.50;;;;;;1565747;74;734;-74